Time;durP1;ratioP1;P1;durP2;ratioP2;P2;SDS_P1;SDS_P2;PMS_P1;PMS_P2;Temp;Humidity;BMP_temperature;BMP_pressure;BME280_temperature;BME280_humidity;BME280_pressure;Samples;Min_cycle;Max_cycle;Signal;HPM_P1;HPM_P2
2023/06/03 00:02:12;;;;;;;9.43;3.55;;;;;;;15.72;78.13;102119.56;4978200;28;20636;-67
2023/06/03 00:04:42;;;;;;;10.07;3.42;;;;;;;15.70;79.04;102116.25;4983416;28;20775;-67
2023/06/03 00:07:10;;;;;;;8.77;3.67;;;;;;;15.65;79.44;102118.50;4978556;28;20049;-67
2023/06/03 00:09:36;;;;;;;5.80;3.50;;;;;;;15.61;79.47;102119.78;4981808;28;20047;-67
2023/06/03 00:12:03;;;;;;;11.40;4.25;;;;;;;15.59;80.39;102111.97;4983342;28;20368;-67
2023/06/03 00:14:30;;;;;;;8.20;4.22;;;;;;;15.58;79.59;102114.78;4963189;28;20149;-67
2023/06/03 00:16:58;;;;;;;6.97;3.83;;;;;;;15.58;79.44;102117.41;4989478;28;20264;-67
2023/06/03 00:19:25;;;;;;;;;;;;;;;15.57;80.09;102119.22;4983387;28;20122;-67
2023/06/03 00:21:54;;;;;;;5.18;3.22;;;;;;;15.56;79.66;102117.59;4985311;28;20464;-67
2023/06/03 00:24:22;;;;;;;7.38;3.67;;;;;;;15.56;77.46;102125.53;4973964;28;20081;-67
2023/06/03 00:26:53;;;;;;;9.20;3.40;;;;;;;15.54;78.06;102124.84;4970578;28;20078;-67
2023/06/03 00:29:19;;;;;;;6.72;3.25;;;;;;;15.48;77.66;102127.22;4983021;28;20050;-67
2023/06/03 00:31:47;;;;;;;9.15;3.65;;;;;;;15.48;77.84;102135.16;4977387;28;20058;-67
2023/06/03 00:34:13;;;;;;;7.63;3.10;;;;;;;15.48;76.80;102129.88;4986657;28;20054;-67
2023/06/03 00:36:40;;;;;;;13.02;3.67;;;;;;;15.43;77.99;102125.03;4975600;28;20055;-67
2023/06/03 00:39:08;;;;;;;9.23;3.30;;;;;;;15.47;77.18;102125.56;4975298;28;20096;-67
2023/06/03 00:41:35;;;;;;;8.25;3.65;;;;;;;15.45;76.56;102124.88;4986264;28;20054;-67
2023/06/03 00:44:01;;;;;;;8.57;3.58;;;;;;;15.39;76.13;102118.38;4968368;28;20073;-67
2023/06/03 00:46:32;;;;;;;7.47;3.45;;;;;;;15.45;75.35;102123.06;4972068;28;20121;-67
2023/06/03 00:48:59;;;;;;;6.35;3.17;;;;;;;15.40;76.12;102117.38;4965963;28;20116;-67
2023/06/03 00:51:26;;;;;;;8.88;3.53;;;;;;;15.37;77.05;102123.78;4975815;28;20169;-67
2023/06/03 00:53:52;;;;;;;8.05;3.97;;;;;;;15.33;77.76;102126.88;4986221;28;20104;-67
2023/06/03 00:56:19;;;;;;;12.38;3.60;;;;;;;15.31;77.63;102120.88;4987085;28;20507;-67
2023/06/03 00:58:46;;;;;;;7.90;3.65;;;;;;;15.30;76.69;102129.81;4975494;28;20082;-67
2023/06/03 01:01:13;;;;;;;7.82;3.90;;;;;;;15.25;77.86;102118.81;4977944;28;20461;-68
2023/06/03 01:03:43;;;;;;;7.18;3.47;;;;;;;15.25;78.86;102124.09;4987227;28;20050;-67
2023/06/03 01:06:15;;;;;;;7.07;3.60;;;;;;;15.16;79.71;102126.66;4971452;28;20180;-68
2023/06/03 01:08:50;;;;;;;6.75;3.58;;;;;;;15.13;79.95;102128.75;4974293;28;20053;-68
2023/06/03 01:11:41;;;;;;;9.10;3.45;;;;;;;15.03;80.19;102119.06;4977096;28;20173;-67
2023/06/03 01:14:34;;;;;;;10.15;3.72;;;;;;;15.04;80.69;102122.53;4988395;28;20073;-67
2023/06/03 01:17:09;;;;;;;8.73;3.42;;;;;;;14.97;81.32;102126.72;4968900;28;20480;-67
2023/06/03 01:19:47;;;;;;;8.32;3.55;;;;;;;14.96;81.48;102122.41;4972437;28;20069;-67
2023/06/03 01:22:16;;;;;;;8.65;2.72;;;;;;;14.98;79.63;102125.75;4978059;28;20058;-67
2023/06/03 01:24:45;;;;;;;7.88;3.78;;;;;;;15.01;79.48;102128.09;4977831;28;20141;-67
2023/06/03 01:27:12;;;;;;;;;;;;;;;14.97;80.82;102124.91;4983258;28;20050;-67
2023/06/03 01:29:44;;;;;;;6.15;3.40;;;;;;;14.96;79.54;102122.41;4973388;28;19925;-67
2023/06/03 01:32:16;;;;;;;6.55;3.80;;;;;;;14.96;79.05;102133.81;4986795;28;20055;-68
2023/06/03 01:34:43;;;;;;;6.00;3.60;;;;;;;14.94;79.18;102132.31;4970213;28;20050;-67
2023/06/03 01:37:10;;;;;;;6.20;4.07;;;;;;;14.87;80.08;102128.56;4991742;28;20088;-67
2023/06/03 01:39:42;;;;;;;9.90;3.70;;;;;;;14.84;79.36;102116.47;4980923;28;20054;-67
2023/06/03 01:42:10;;;;;;;10.60;3.97;;;;;;;14.77;80.07;102120.66;4969315;28;20046;-67
2023/06/03 01:44:38;;;;;;;7.95;3.58;;;;;;;14.72;80.45;102123.72;4983550;28;20057;-67
2023/06/03 01:47:05;;;;;;;6.72;3.00;;;;;;;14.70;80.17;102123.03;4978575;28;20077;-68
2023/06/03 01:49:32;;;;;;;6.47;3.40;;;;;;;14.68;79.28;102132.06;4970770;28;20055;-67
2023/06/03 01:51:59;;;;;;;6.13;3.33;;;;;;;14.67;78.43;102130.41;4973867;28;20057;-67
2023/06/03 01:54:27;;;;;;;7.78;3.40;;;;;;;14.66;78.74;102134.00;4984879;28;20415;-67
2023/06/03 01:56:54;;;;;;;7.57;3.17;;;;;;;14.67;78.41;102131.22;4987233;28;20046;-67
2023/06/03 01:59:25;;;;;;;6.00;2.95;;;;;;;14.65;78.15;102135.81;4975282;28;20057;-67
2023/06/03 02:01:54;;;;;;;4.22;2.90;;;;;;;14.60;78.27;102127.47;4978208;28;20055;-67
2023/06/03 02:04:21;;;;;;;8.05;3.60;;;;;;;14.53;79.11;102132.47;4984779;28;20030;-68
2023/06/03 02:06:52;;;;;;;6.35;3.20;;;;;;;14.48;78.78;102125.94;4983191;28;20535;-67
2023/06/03 02:09:24;;;;;;;6.10;3.05;;;;;;;14.47;79.10;102142.78;4980681;28;20045;-67
2023/06/03 02:11:52;;;;;;;9.52;2.70;;;;;;;14.42;79.01;102132.59;4982596;28;20491;-68
2023/06/03 02:14:18;;;;;;;7.47;3.10;;;;;;;14.35;79.99;102134.97;4985631;28;20047;-67
2023/06/03 02:16:45;;;;;;;7.43;2.88;;;;;;;14.30;79.88;102136.38;4981723;28;20050;-67
2023/06/03 02:19:14;;;;;;;6.00;3.10;;;;;;;14.30;79.12;102125.81;4992656;28;20114;-67
2023/06/03 02:21:42;;;;;;;5.97;2.97;;;;;;;14.28;79.53;102133.03;4985565;28;20466;-68
2023/06/03 02:24:09;;;;;;;6.73;3.10;;;;;;;14.26;79.11;102130.53;4987358;28;20047;-68
2023/06/03 02:26:38;;;;;;;4.55;2.80;;;;;;;14.27;78.13;102131.34;4977648;28;20284;-67
2023/06/03 02:29:06;;;;;;;8.07;3.30;;;;;;;14.24;78.62;102132.47;4976011;28;20137;-67
2023/06/03 02:31:32;;;;;;;4.88;2.22;;;;;;;14.16;78.23;102124.41;4987005;28;20066;-64
2023/06/03 02:33:59;;;;;;;6.15;2.88;;;;;;;14.14;78.29;102126.38;4982585;28;20050;-64
2023/06/03 02:36:26;;;;;;;6.40;2.83;;;;;;;14.12;77.65;102130.94;4991095;28;20046;-63
2023/06/03 02:38:52;;;;;;;5.47;2.42;;;;;;;14.05;77.71;102122.72;4971223;28;20149;-64
2023/06/03 02:41:18;;;;;;;9.57;2.58;;;;;;;14.08;76.57;102127.75;4984440;28;20099;-66
2023/06/03 02:43:45;;;;;;;8.07;2.53;;;;;;;14.08;75.50;102137.47;4962653;28;20141;-64
2023/06/03 02:46:11;;;;;;;5.20;2.65;;;;;;;14.06;75.11;102124.41;4980423;28;20073;-66
2023/06/03 02:48:38;;;;;;;4.90;2.67;;;;;;;14.05;74.75;102133.28;4978688;28;20535;-67
2023/06/03 02:51:04;;;;;;;4.53;2.30;;;;;;;14.01;74.64;102131.88;4979702;28;20081;-68
2023/06/03 02:53:31;;;;;;;3.13;2.20;;;;;;;14.01;74.63;102131.88;4982520;28;20472;-67
2023/06/03 02:55:57;;;;;;;5.03;2.50;;;;;;;13.92;75.48;102132.72;4978614;28;20050;-68
2023/06/03 02:58:24;;;;;;;4.60;2.00;;;;;;;13.90;74.69;102135.50;4983968;28;20074;-67
2023/06/03 03:00:50;;;;;;;4.30;2.20;;;;;;;13.95;73.97;102137.72;4992110;28;20057;-67
2023/06/03 03:03:17;;;;;;;4.57;2.20;;;;;;;13.94;73.35;102131.63;5001926;28;20081;-67
2023/06/03 03:05:44;;;;;;;4.90;2.45;;;;;;;13.94;73.12;102134.25;4986897;28;20053;-68
2023/06/03 03:08:11;;;;;;;4.03;2.00;;;;;;;13.87;73.44;102137.56;4980714;28;20074;-67
2023/06/03 03:10:39;;;;;;;5.07;2.08;;;;;;;13.90;72.43;102132.88;4981071;28;20129;-68
2023/06/03 03:13:06;;;;;;;6.00;2.03;;;;;;;13.91;71.86;102144.25;4985179;28;20058;-67
2023/06/03 03:15:32;;;;;;;4.13;1.90;;;;;;;13.89;71.84;102135.63;4970140;28;20568;-67
2023/06/03 03:17:59;;;;;;;5.43;2.13;;;;;;;13.91;71.62;102144.25;4978667;28;20377;-68
2023/06/03 03:20:29;;;;;;;3.95;2.15;;;;;;;13.84;71.58;102142.16;4974359;28;20071;-67
2023/06/03 03:22:55;;;;;;;7.68;2.17;;;;;;;13.81;71.08;102142.41;4969598;28;20427;-67
2023/06/03 03:25:21;;;;;;;4.50;2.40;;;;;;;13.78;71.28;102147.97;4975122;28;20052;-67
2023/06/03 03:27:48;;;;;;;4.43;1.95;;;;;;;13.74;70.55;102143.94;4980206;28;20122;-67
2023/06/03 03:30:14;;;;;;;4.38;2.30;;;;;;;13.70;70.73;102139.91;4972055;28;20046;-67
2023/06/03 03:32:41;;;;;;;4.90;1.88;;;;;;;13.71;70.60;102149.47;4990079;28;20521;-67
2023/06/03 03:35:13;;;;;;;8.35;2.45;;;;;;;13.75;70.38;102142.94;4979434;28;20473;-67
2023/06/03 03:37:40;;;;;;;5.47;1.90;;;;;;;13.73;69.74;102144.06;4981810;28;20057;-67
2023/06/03 03:40:20;;;;;;;7.00;2.10;;;;;;;13.70;69.70;102146.94;4989267;28;20890;-67
2023/06/03 03:42:52;;;;;;;5.90;2.30;;;;;;;13.73;69.32;102154.59;4979588;28;20563;-67
2023/06/03 03:45:21;;;;;;;5.45;2.00;;;;;;;13.72;69.34;102147.66;4982942;28;20118;-67
2023/06/03 03:47:50;;;;;;;2.72;1.65;;;;;;;13.70;69.48;102147.81;4976096;28;20063;-67
2023/06/03 03:50:35;;;;;;;5.78;1.90;;;;;;;13.68;69.00;102148.88;4963583;28;20058;-68
2023/06/03 03:53:04;;;;;;;3.60;1.63;;;;;;;13.62;69.41;102152.91;4967258;28;20435;-67
2023/06/03 03:55:46;;;;;;;6.22;2.10;;;;;;;13.61;69.08;102153.88;4988733;28;21081;-67
2023/06/03 03:58:34;;;;;;;5.43;2.30;;;;;;;13.56;69.05;102150.78;4976616;28;20475;-68
2023/06/03 04:01:09;;;;;;;4.20;1.65;;;;;;;13.51;69.47;102158.28;4973079;28;20133;-67
2023/06/03 04:03:42;;;;;;;2.47;1.77;;;;;;;13.46;69.22;102148.13;4974638;28;20141;-67
2023/06/03 04:06:10;;;;;;;4.05;1.92;;;;;;;13.45;69.98;102160.47;4962342;28;20105;-67
2023/06/03 04:08:46;;;;;;;2.60;1.73;;;;;;;13.46;69.86;102156.03;4983364;28;20046;-67
2023/06/03 04:11:23;;;;;;;3.95;2.05;;;;;;;13.47;70.23;102156.88;4984036;28;20046;-67
2023/06/03 04:13:50;;;;;;;5.85;1.88;;;;;;;13.43;70.63;102151.88;4985358;28;20492;-67
2023/06/03 04:16:42;;;;;;;3.90;1.67;;;;;;;13.44;70.20;102158.78;4982825;28;20243;-67
2023/06/03 04:19:30;;;;;;;6.13;2.15;;;;;;;13.42;70.76;102162.53;4969646;28;20401;-67
2023/06/03 04:22:02;;;;;;;5.53;1.90;;;;;;;13.41;70.81;102159.06;4977686;28;20051;-67
2023/06/03 04:24:28;;;;;;;3.60;1.80;;;;;;;13.42;71.49;102167.81;4987174;28;20606;-67
2023/06/03 04:26:56;;;;;;;2.90;1.70;;;;;;;13.41;70.99;102171.44;4963497;28;20414;-68
2023/06/03 04:29:22;;;;;;;4.72;1.70;;;;;;;13.44;70.32;102169.34;4982382;28;20058;-67
2023/06/03 04:31:49;;;;;;;2.50;1.60;;;;;;;13.43;70.95;102172.13;4979392;28;20581;-68
2023/06/03 04:34:16;;;;;;;3.58;1.83;;;;;;;13.45;70.83;102170.19;4965051;28;20539;-67
2023/06/03 04:36:42;;;;;;;6.05;1.70;;;;;;;13.41;70.43;102172.25;4974590;28;20050;-67
2023/06/03 04:39:10;;;;;;;2.53;1.63;;;;;;;13.40;70.56;102173.22;4971046;28;20062;-67
2023/06/03 04:41:37;;;;;;;6.75;1.67;;;;;;;13.43;70.35;102177.41;4972666;28;20047;-67
2023/06/03 04:44:04;;;;;;;2.53;1.83;;;;;;;13.45;69.88;102164.94;4977648;28;20058;-68
2023/06/03 04:46:31;;;;;;;5.00;1.60;;;;;;;13.48;69.64;102172.53;4973566;28;20125;-68
2023/06/03 04:49:02;;;;;;;4.28;1.55;;;;;;;13.47;70.26;102168.25;4987876;28;20050;-67
2023/06/03 04:51:34;;;;;;;3.30;1.60;;;;;;;13.49;69.56;102170.78;4980991;28;20050;-67
2023/06/03 04:54:03;;;;;;;2.22;1.55;;;;;;;13.51;70.05;102176.75;4989078;28;20713;-67
2023/06/03 04:56:29;;;;;;;;;;;;;;;13.53;69.73;102175.63;4976478;28;20133;-67
2023/06/03 04:58:57;;;;;;;2.97;1.67;;;;;;;13.51;69.72;102179.38;4978848;28;20326;-67
2023/06/03 05:01:25;;;;;;;4.07;1.58;;;;;;;13.53;69.95;102177.44;4960194;28;20778;-68
2023/06/03 05:03:52;;;;;;;2.80;1.65;;;;;;;13.50;70.00;102170.63;4972598;28;20141;-67
2023/06/03 05:06:19;;;;;;;3.72;1.40;;;;;;;13.53;69.48;102170.38;4987663;28;20093;-67
2023/06/03 05:08:50;;;;;;;3.10;1.85;;;;;;;13.52;69.38;102168.69;4981690;28;20062;-67
2023/06/03 05:11:17;;;;;;;5.18;1.77;;;;;;;13.54;70.09;102174.66;4976789;28;20202;-67
2023/06/03 05:13:44;;;;;;;5.05;1.92;;;;;;;13.60;69.51;102181.19;4975801;28;20046;-67
2023/06/03 05:16:11;;;;;;;5.18;1.80;;;;;;;13.60;69.79;102174.16;4969652;28;20046;-67
2023/06/03 05:18:39;;;;;;;3.97;1.60;;;;;;;13.60;70.70;102171.50;4981352;28;20103;-68
2023/06/03 05:21:06;;;;;;;2.78;1.77;;;;;;;13.64;69.64;102169.41;4971073;28;20620;-67
2023/06/03 05:23:32;;;;;;;7.20;1.90;;;;;;;13.67;69.86;102176.25;4987217;28;20058;-67
2023/06/03 05:25:59;;;;;;;6.43;1.70;;;;;;;13.64;70.26;102170.28;4985933;28;20069;-67
2023/06/03 05:28:25;;;;;;;4.25;1.98;;;;;;;13.70;70.32;102181.22;4988088;28;20061;-67
2023/06/03 05:30:52;;;;;;;4.82;1.98;;;;;;;13.73;69.97;102173.91;4977867;28;20125;-67
2023/06/03 05:33:29;;;;;;;5.22;1.75;;;;;;;13.75;70.04;102171.13;4977020;28;20078;-67
2023/06/03 05:35:57;;;;;;;4.30;1.55;;;;;;;13.74;70.61;102180.00;4965119;28;20449;-68
2023/06/03 05:38:24;;;;;;;2.92;1.50;;;;;;;13.73;69.37;102181.81;4980002;28;20042;-68
2023/06/03 05:40:51;;;;;;;4.78;1.85;;;;;;;13.76;68.09;102175.41;4972569;28;20137;-67
2023/06/03 05:43:18;;;;;;;3.75;1.80;;;;;;;13.80;66.66;102174.22;4972892;28;20090;-68
2023/06/03 05:45:45;;;;;;;3.58;1.70;;;;;;;13.79;68.31;102176.00;4986304;28;20061;-67
2023/06/03 05:48:12;;;;;;;4.97;1.48;;;;;;;13.82;66.02;102180.19;4982815;28;20043;-67
2023/06/03 05:50:47;;;;;;;4.10;1.52;;;;;;;13.94;67.40;102183.53;4981900;28;20054;-68
2023/06/03 05:53:14;;;;;;;4.07;2.00;;;;;;;13.91;68.57;102181.16;4978296;28;20150;-67
2023/06/03 05:55:42;;;;;;;4.65;1.40;;;;;;;13.94;66.54;102178.28;4987906;28;20055;-68
2023/06/03 05:58:08;;;;;;;4.70;1.80;;;;;;;14.02;65.74;102178.41;4983814;28;20076;-67
2023/06/03 06:00:35;;;;;;;2.70;1.65;;;;;;;14.08;66.41;102184.97;4985961;28;20058;-68
2023/06/03 06:03:01;;;;;;;3.15;1.70;;;;;;;14.07;66.69;102181.47;4968933;28;20072;-67
2023/06/03 06:05:28;;;;;;;3.75;1.70;;;;;;;14.10;66.73;102180.38;4967325;28;20053;-67
2023/06/03 06:07:55;;;;;;;4.13;1.90;;;;;;;14.11;66.57;102184.66;4978628;28;20134;-67
2023/06/03 06:10:22;;;;;;;6.18;2.40;;;;;;;14.15;66.62;102184.28;4967998;28;20092;-67
2023/06/03 06:12:48;;;;;;;5.25;2.03;;;;;;;14.19;66.16;102182.19;4979940;28;20050;-67
2023/06/03 06:15:15;;;;;;;3.38;1.60;;;;;;;14.22;65.89;102181.91;4983605;28;20067;-67
2023/06/03 06:17:44;;;;;;;3.53;1.60;;;;;;;14.27;66.07;102182.34;4971648;28;20050;-68
2023/06/03 06:20:11;;;;;;;4.35;1.50;;;;;;;14.29;66.14;102182.19;4976394;28;20050;-67
2023/06/03 06:22:38;;;;;;;6.90;1.90;;;;;;;14.31;66.46;102185.53;4970782;28;20136;-67
2023/06/03 06:25:06;;;;;;;3.10;1.63;;;;;;;14.37;66.57;102190.28;4986530;28;20120;-67
2023/06/03 06:27:32;;;;;;;3.25;1.50;;;;;;;14.45;65.49;102185.13;4990365;28;20722;-67
2023/06/03 06:29:59;;;;;;;3.17;1.70;;;;;;;14.50;64.79;102182.06;4986759;28;20078;-67
2023/06/03 06:32:26;;;;;;;3.70;1.58;;;;;;;14.51;64.37;102178.47;4985087;28;20050;-67
2023/06/03 06:34:53;;;;;;;4.60;1.60;;;;;;;14.57;64.72;102181.41;4972374;28;20178;-67
2023/06/03 06:37:20;;;;;;;7.78;1.63;;;;;;;14.62;64.09;102192.41;4984881;28;20054;-67
2023/06/03 06:39:50;;;;;;;5.60;1.60;;;;;;;14.67;64.50;102191.16;4969942;28;20058;-67
2023/06/03 06:42:31;;;;;;;4.80;1.60;;;;;;;14.70;64.02;102189.06;4986105;28;20081;-68
2023/06/03 06:45:07;;;;;;;2.78;1.38;;;;;;;14.75;61.96;102183.34;4979854;28;20064;-68
2023/06/03 06:47:36;;;;;;;2.67;1.38;;;;;;;14.79;62.23;102187.38;4976812;28;20055;-67
2023/06/03 06:50:07;;;;;;;5.18;1.30;;;;;;;14.80;63.00;102189.06;4969064;28;20060;-68
2023/06/03 06:52:35;;;;;;;2.90;1.30;;;;;;;14.87;63.06;102190.13;4998387;28;20080;-67
2023/06/03 06:55:10;;;;;;;4.45;1.35;;;;;;;14.93;62.73;102196.66;4984198;28;20128;-68
2023/06/03 06:57:37;;;;;;;3.05;1.38;;;;;;;14.98;61.96;102190.00;4987209;28;20116;-67
2023/06/03 07:00:04;;;;;;;3.20;1.25;;;;;;;15.04;61.50;102191.22;4983281;28;20055;-67
2023/06/03 07:02:30;;;;;;;5.93;1.40;;;;;;;15.08;61.35;102189.97;4970392;28;20074;-67
2023/06/03 07:04:56;;;;;;;2.28;1.15;;;;;;;15.11;61.70;102184.41;4975351;28;20098;-68
2023/06/03 07:07:23;;;;;;;4.72;1.50;;;;;;;15.13;59.78;102182.47;4975360;28;20113;-68
2023/06/03 07:09:50;;;;;;;5.28;2.10;;;;;;;15.14;60.20;102188.56;4983138;28;20057;-67
2023/06/03 07:12:16;;;;;;;5.57;2.03;;;;;;;15.20;59.98;102178.25;4977206;28;20125;-68
2023/06/03 07:14:43;;;;;;;3.90;1.40;;;;;;;15.25;59.99;102183.13;4970092;28;20142;-67
2023/06/03 07:17:09;;;;;;;2.40;1.33;;;;;;;15.27;60.27;102181.16;4975976;28;20134;-67
2023/06/03 07:19:37;;;;;;;3.80;1.50;;;;;;;15.35;59.55;102183.91;4987156;28;20110;-67
2023/06/03 07:22:07;;;;;;;3.10;1.30;;;;;;;15.41;60.04;102188.63;4998500;28;20058;-67
2023/06/03 07:24:35;;;;;;;2.50;1.42;;;;;;;15.45;58.89;102191.00;4975618;28;20096;-67
2023/06/03 07:27:06;;;;;;;2.70;1.50;;;;;;;15.49;58.38;102187.06;4985060;28;20507;-67
2023/06/03 07:29:36;;;;;;;2.65;1.13;;;;;;;15.54;59.18;102183.00;4985501;28;20050;-69
2023/06/03 07:32:07;;;;;;;4.22;1.40;;;;;;;15.64;58.42;102185.59;4976287;28;20055;-69
2023/06/03 07:34:34;;;;;;;4.65;1.55;;;;;;;15.69;58.72;102187.81;4982366;28;20378;-69
2023/06/03 07:37:02;;;;;;;3.88;1.40;;;;;;;15.75;58.07;102188.06;4985127;28;20149;-69
2023/06/03 07:39:29;;;;;;;3.43;1.13;;;;;;;15.80;57.82;102182.38;4978251;28;20051;-68
2023/06/03 07:41:55;;;;;;;5.28;1.17;;;;;;;15.79;57.42;102170.09;4988142;28;20089;-68
2023/06/03 07:44:43;;;;;;;2.78;1.10;;;;;;;15.91;57.29;102183.97;4961887;28;20043;-68
2023/06/03 07:47:16;;;;;;;2.33;1.33;;;;;;;16.00;57.14;102180.44;4979982;28;20093;-68
2023/06/03 07:49:47;;;;;;;5.53;1.35;;;;;;;16.07;57.19;102184.13;4977510;28;20066;-68
2023/06/03 07:52:17;;;;;;;2.17;1.20;;;;;;;16.12;57.43;102187.16;4983786;28;20061;-68
2023/06/03 07:54:43;;;;;;;3.70;1.10;;;;;;;16.22;57.08;102189.75;4972981;28;20058;-68
2023/06/03 07:57:14;;;;;;;3.55;1.35;;;;;;;16.24;55.95;102190.44;4987440;28;20081;-68
2023/06/03 08:00:07;;;;;;;2.95;1.50;;;;;;;16.32;55.09;102193.16;4967005;28;20042;-68
2023/06/03 08:02:36;;;;;;;3.53;0.93;;;;;;;16.39;55.50;102198.69;4985098;28;20149;-68
2023/06/03 08:05:04;;;;;;;3.88;1.10;;;;;;;16.46;54.90;102205.03;4967707;28;20482;-68
2023/06/03 08:07:32;;;;;;;5.57;1.20;;;;;;;16.57;55.71;102199.50;4973543;28;20061;-68
2023/06/03 08:09:58;;;;;;;2.53;1.10;;;;;;;16.66;55.87;102191.63;4980836;28;20046;-69
2023/06/03 08:12:31;;;;;;;2.40;1.02;;;;;;;16.74;54.12;102202.28;4975247;28;20058;-68
2023/06/03 08:14:57;;;;;;;7.70;1.20;;;;;;;16.81;54.56;102192.75;4975795;28;20054;-68
2023/06/03 08:17:37;;;;;;;4.13;0.98;;;;;;;16.97;54.00;102203.53;4962615;28;20119;-69
2023/06/03 08:20:08;;;;;;;5.00;1.10;;;;;;;17.02;53.48;102195.09;4985886;28;20038;-66
2023/06/03 08:22:43;;;;;;;3.58;1.20;;;;;;;17.14;52.91;102190.38;4964047;28;20054;-67
2023/06/03 08:25:10;;;;;;;3.90;1.17;;;;;;;17.21;50.84;102191.41;4978705;28;20046;-67
2023/06/03 08:27:37;;;;;;;2.47;1.00;;;;;;;17.44;50.32;102188.19;4989412;28;20058;-67
2023/06/03 08:30:04;;;;;;;2.45;1.10;;;;;;;17.70;50.77;102180.19;4972567;28;20046;-67
2023/06/03 08:32:35;;;;;;;1.80;0.90;;;;;;;18.06;50.00;102187.97;4981685;28;20553;-67
2023/06/03 08:35:02;;;;;;;5.47;1.10;;;;;;;18.44;49.26;102180.38;4970427;28;20104;-67
2023/06/03 08:37:30;;;;;;;3.22;0.90;;;;;;;18.87;46.93;102171.25;4960599;28;20949;-67
2023/06/03 08:39:57;;;;;;;3.83;1.00;;;;;;;19.39;46.92;102174.47;4973169;28;20089;-67
2023/06/03 08:42:29;;;;;;;3.90;1.10;;;;;;;19.83;44.84;102168.63;4980595;28;20130;-67
2023/06/03 08:45:05;;;;;;;7.80;1.20;;;;;;;20.26;44.83;102161.03;4980509;28;20054;-68
2023/06/03 08:47:40;;;;;;;0.93;0.65;;;;;;;20.70;42.96;102153.19;4974008;28;20137;-67
2023/06/03 08:50:10;;;;;;;3.50;0.70;;;;;;;21.16;42.86;102172.72;4982350;28;20085;-68
2023/06/03 08:52:38;;;;;;;1.73;1.20;;;;;;;21.48;40.69;102159.03;4973870;28;20499;-68
2023/06/03 08:55:06;;;;;;;1.85;0.85;;;;;;;21.75;39.38;102153.19;4972734;28;20503;-67
2023/06/03 08:57:35;;;;;;;2.05;0.90;;;;;;;22.03;39.66;102156.78;4983462;28;20077;-68
2023/06/03 09:00:02;;;;;;;;;;;;;;;22.31;39.12;102164.88;4989311;28;20050;-68
2023/06/03 09:02:29;;;;;;;2.55;1.02;;;;;;;22.56;38.25;102155.63;4983664;28;19936;-67
2023/06/03 09:04:57;;;;;;;3.55;0.90;;;;;;;22.80;38.39;102151.69;4988082;28;20058;-67
2023/06/03 09:07:24;;;;;;;3.35;0.82;;;;;;;22.96;36.79;102153.25;4967958;28;20054;-67
2023/06/03 09:09:53;;;;;;;1.17;0.70;;;;;;;23.23;38.37;102159.59;4958456;28;20133;-68
2023/06/03 09:12:20;;;;;;;2.75;0.80;;;;;;;23.42;38.71;102148.16;4981250;28;20514;-68
2023/06/03 09:14:47;;;;;;;2.55;0.75;;;;;;;23.60;37.13;102155.63;4962927;28;20054;-68
2023/06/03 09:17:14;;;;;;;5.95;1.00;;;;;;;23.76;37.52;102153.63;4968163;28;20082;-68
2023/06/03 09:19:41;;;;;;;3.72;1.10;;;;;;;23.94;37.23;102148.53;4971626;28;20050;-68
2023/06/03 09:22:08;;;;;;;4.00;1.00;;;;;;;24.11;35.61;102158.84;4970327;28;20054;-68
2023/06/03 09:24:35;;;;;;;1.25;0.90;;;;;;;24.11;35.19;102157.03;4970008;28;20054;-68
2023/06/03 09:27:01;;;;;;;2.25;0.82;;;;;;;24.27;34.00;102153.13;4988219;28;20061;-68
2023/06/03 09:29:28;;;;;;;5.40;1.10;;;;;;;24.39;34.55;102158.69;4990627;28;20124;-68
2023/06/03 09:31:56;;;;;;;4.82;1.50;;;;;;;24.47;33.74;102153.94;4977150;28;20466;-68
2023/06/03 09:34:23;;;;;;;2.03;1.13;;;;;;;24.66;33.28;102164.91;4986606;28;20157;-68
2023/06/03 09:36:50;;;;;;;2.08;0.88;;;;;;;24.77;33.80;102158.88;4975744;28;20054;-68
2023/06/03 09:39:31;;;;;;;1.23;0.90;;;;;;;24.69;32.73;102158.28;4980197;28;20105;-68
2023/06/03 09:41:58;;;;;;;1.10;0.60;;;;;;;24.87;33.82;102155.78;4979735;28;20077;-69
2023/06/03 09:44:24;;;;;;;2.20;1.15;;;;;;;24.96;32.02;102149.16;4967680;28;20081;-68
2023/06/03 09:46:51;;;;;;;1.63;0.75;;;;;;;25.05;32.88;102153.28;4981042;28;20062;-69
2023/06/03 09:49:18;;;;;;;1.63;0.90;;;;;;;25.12;31.02;102147.06;4972361;28;20395;-68
2023/06/03 09:52:09;;;;;;;0.77;0.70;;;;;;;25.17;32.12;102150.75;4978918;28;20085;-68
2023/06/03 09:54:36;;;;;;;1.25;0.88;;;;;;;25.25;32.28;102152.41;4965700;28;20086;-68
2023/06/03 09:57:11;;;;;;;3.20;0.95;;;;;;;25.18;31.29;102144.34;4981550;28;20061;-69
2023/06/03 09:59:45;;;;;;;4.68;0.80;;;;;;;25.35;31.72;102149.28;4976068;28;20146;-69
2023/06/03 10:02:11;;;;;;;1.95;0.80;;;;;;;25.42;30.50;102144.69;4982105;28;20054;-69
2023/06/03 10:04:41;;;;;;;1.95;0.73;;;;;;;25.49;30.41;102141.97;4968577;28;20109;-69
2023/06/03 10:07:16;;;;;;;2.03;0.90;;;;;;;25.60;33.41;102144.81;4959832;28;20122;-68
2023/06/03 10:09:47;;;;;;;1.58;0.82;;;;;;;25.73;31.29;102138.53;4986764;28;20558;-68
2023/06/03 10:12:16;;;;;;;2.40;0.80;;;;;;;25.78;30.71;102149.47;4976424;28;20773;-69
2023/06/03 10:14:48;;;;;;;3.80;0.90;;;;;;;25.89;30.76;102147.13;4977840;28;20617;-68
2023/06/03 10:17:16;;;;;;;5.10;0.70;;;;;;;25.96;30.09;102138.00;4977929;28;20042;-69
2023/06/03 10:19:44;;;;;;;3.58;0.73;;;;;;;26.12;30.05;102136.66;4962999;28;20055;-69
2023/06/03 10:22:16;;;;;;;;;;;;;;;26.28;29.98;102142.53;4982884;28;20054;-69
2023/06/03 10:24:45;;;;;;;1.52;1.00;;;;;;;26.48;31.74;102143.16;4974962;28;19925;-69
2023/06/03 10:27:14;;;;;;;1.95;1.00;;;;;;;26.67;31.91;102143.25;4984251;28;20046;-69
2023/06/03 10:29:41;;;;;;;2.65;1.30;;;;;;;26.59;29.39;102134.41;4974019;28;20165;-69
2023/06/03 10:32:14;;;;;;;3.03;0.98;;;;;;;26.67;30.07;102152.13;4979906;28;20504;-69
2023/06/03 10:34:44;;;;;;;1.85;0.80;;;;;;;26.69;28.13;102146.53;4977460;28;20108;-69
2023/06/03 10:37:14;;;;;;;1.50;0.85;;;;;;;26.69;29.01;102136.59;4971492;28;20062;-69
2023/06/03 10:39:44;;;;;;;1.63;0.80;;;;;;;26.74;29.37;102142.16;4988553;28;20097;-69
2023/06/03 10:42:12;;;;;;;2.88;0.90;;;;;;;26.72;28.64;102144.22;4983539;28;20054;-69
2023/06/03 10:44:38;;;;;;;;;;;;;;;26.90;28.97;102137.22;4979556;28;20069;-69
2023/06/03 10:47:06;;;;;;;3.03;0.90;;;;;;;27.00;29.52;102138.34;4969411;28;19922;-69
2023/06/03 10:49:39;;;;;;;2.80;0.80;;;;;;;27.08;28.21;102136.41;4976945;28;20054;-69
2023/06/03 10:52:48;;;;;;;2.72;0.80;;;;;;;27.12;28.24;102127.63;4982244;28;20050;-69
2023/06/03 10:55:25;;;;;;;2.65;0.73;;;;;;;27.25;29.49;102134.78;4963057;28;20129;-70
2023/06/03 10:58:17;;;;;;;3.93;1.23;;;;;;;27.35;29.07;102137.75;4969866;28;20125;-69
2023/06/03 11:00:59;;;;;;;3.17;1.98;;;;;;;27.42;29.32;102135.78;4968451;28;20479;-69
2023/06/03 11:03:28;;;;;;;2.40;1.10;;;;;;;27.40;29.78;102140.59;4970942;28;20503;-69
2023/06/03 11:06:21;;;;;;;2.45;1.10;;;;;;;27.45;28.72;102136.38;4984931;28;20476;-69
2023/06/03 11:09:05;;;;;;;3.05;0.98;;;;;;;27.55;28.36;102126.69;4968122;28;20051;-69
2023/06/03 11:11:55;;;;;;;4.38;0.80;;;;;;;27.38;27.64;102122.97;4987062;28;20404;-70
2023/06/03 11:14:48;;;;;;;2.38;0.95;;;;;;;27.54;28.75;102124.22;4966288;28;20537;-70
2023/06/03 11:17:18;;;;;;;2.58;0.90;;;;;;;27.65;29.44;102141.50;4972867;28;20494;-70
2023/06/03 11:19:45;;;;;;;1.90;1.05;;;;;;;27.74;28.82;102132.03;4977398;28;20055;-70
2023/06/03 11:22:13;;;;;;;1.60;0.65;;;;;;;27.87;29.70;102128.31;4970308;28;20062;-69
2023/06/03 11:24:42;;;;;;;1.17;0.70;;;;;;;27.99;29.28;102131.88;4977824;28;20092;-69
2023/06/03 11:27:09;;;;;;;1.42;0.88;;;;;;;27.88;28.70;102121.91;4981786;28;20046;-70
2023/06/03 11:32:17;;;;;;;1.52;0.82;;;;;;;28.00;29.06;102134.34;4984188;28;20061;-70
2023/06/03 11:34:44;;;;;;;2.35;0.80;;;;;;;28.01;28.68;102124.38;4988312;28;20088;-70
2023/06/03 11:37:15;;;;;;;2.65;0.85;;;;;;;28.16;28.68;102124.75;4992313;28;20080;-70
2023/06/03 11:40:05;;;;;;;2.20;0.90;;;;;;;28.12;28.34;102112.78;4967240;28;20051;-70
2023/06/03 11:42:32;;;;;;;3.65;0.90;;;;;;;28.26;29.46;102129.56;4976684;28;20050;-70